0VA6 weather

Mc Guire Va Medical Center Pad Heliport
Richmond, Virginia, United States

Public forecast

Using degrees Fahrenheit for public forecast. Weather courtesy of forecast.io.

Closest aviation weather report (METAR) to Mc Guire Va Medical Center Pad Heliport

Closest report is Chesterfield County Airport, 6.2 nm (11.4 km) SSW. Retrieved 2019/10/18 06:56 UTC (55 minutes ago):

KFCI 180656Z AUTO 32004KT 10SM CLR 03/02 A2990 RMK AO2 SLP136 T00330017

Closest aviation forecast (TAF) to Mc Guire Va Medical Center Pad Heliport

Closest forecast is Richmond International Airport, 6.8 nm (12.6 km) E. Retrieved 2019/10/18 06:27 UTC (1 hour ago):

TAF KRIC 180525Z 1806/1906 29008KT P6SM SKC FM181400 32006KT P6SM SKC FM182300 VRB03KT P6SM SKC